Time;durP1;ratioP1;P1;durP2;ratioP2;P2;SDS_P1;SDS_P2;PMS_P1;PMS_P2;Temp;Humidity;BMP_temperature;BMP_pressure;BME280_temperature;BME280_humidity;BME280_pressure;Samples;Min_cycle;Max_cycle;Signal;HPM_P1;HPM_P2
2022/11/21 00:00:59;;;;;;;35.85;26.75;;;9.40;99.90;;;;;;5008148;28;20034;-78
2022/11/21 00:03:25;;;;;;;29.05;26.00;;;9.40;99.90;;;;;;5024476;28;20033;-78
2022/11/21 00:05:51;;;;;;;32.53;26.80;;;9.40;99.90;;;;;;5020113;28;20502;-78
2022/11/21 00:08:19;;;;;;;32.75;26.67;;;9.40;99.90;;;;;;5007676;28;20038;-78
2022/11/21 00:10:45;;;;;;;32.17;26.98;;;9.30;99.90;;;;;;4990299;28;20030;-77
2022/11/21 00:13:16;;;;;;;34.40;26.27;;;9.30;99.90;;;;;;5021167;28;20419;-77
2022/11/21 00:15:42;;;;;;;33.10;25.70;;;9.30;99.90;;;;;;5010765;28;20053;-77
2022/11/21 00:18:10;;;;;;;27.13;24.43;;;9.30;99.90;;;;;;4991596;28;20030;-77
2022/11/21 00:20:36;;;;;;;31.38;26.20;;;9.30;99.90;;;;;;5007541;28;20026;-78
2022/11/21 00:23:02;;;;;;;31.73;26.65;;;9.20;99.90;;;;;;4989815;28;20025;-78
2022/11/21 00:25:29;;;;;;;30.13;27.10;;;9.20;99.90;;;;;;5006662;28;20053;-78
2022/11/21 00:27:55;;;;;;;30.15;27.33;;;9.20;99.90;;;;;;5009053;28;20038;-78
2022/11/21 00:30:21;;;;;;;30.57;26.73;;;9.20;99.90;;;;;;5023634;28;20026;-78
2022/11/21 00:32:47;;;;;;;28.30;24.50;;;9.20;99.90;;;;;;5023105;28;20037;-77
2022/11/21 00:35:13;;;;;;;29.98;26.83;;;9.20;99.90;;;;;;5006748;28;20506;-79
2022/11/21 00:37:39;;;;;;;30.95;26.48;;;9.10;99.90;;;;;;4997009;28;20030;-78
2022/11/21 00:40:05;;;;;;;33.05;28.73;;;9.10;99.90;;;;;;4993798;28;20022;-78
2022/11/21 00:42:32;;;;;;;31.92;26.70;;;9.10;99.90;;;;;;5010685;28;20045;-78
2022/11/21 00:44:58;;;;;;;38.22;27.60;;;9.00;99.90;;;;;;4995164;28;20391;-78
2022/11/21 00:47:24;;;;;;;36.95;27.80;;;9.00;99.90;;;;;;4994344;28;20045;-77
2022/11/21 00:49:50;;;;;;;32.85;28.42;;;9.00;99.90;;;;;;4994995;28;20360;-78
2022/11/21 00:52:16;;;;;;;37.47;29.27;;;9.00;99.90;;;;;;5010749;28;20046;-78
2022/11/21 00:54:43;;;;;;;31.65;28.08;;;9.00;99.90;;;;;;5009360;28;20030;-77
2022/11/21 00:57:09;;;;;;;35.22;28.33;;;9.00;99.90;;;;;;4994146;28;20038;-78
2022/11/21 00:59:35;;;;;;;31.45;28.23;;;9.00;99.90;;;;;;4994038;28;20041;-78
2022/11/21 01:02:01;;;;;;;39.17;28.27;;;9.00;99.90;;;;;;4993145;28;20053;-77
2022/11/21 01:04:34;;;;;;;31.42;28.17;;;9.00;99.90;;;;;;5008907;28;20398;-78
2022/11/21 01:07:00;;;;;;;31.13;27.92;;;9.00;99.90;;;;;;4977764;28;20038;-77
2022/11/21 01:09:27;;;;;;;36.00;27.42;;;9.00;99.90;;;;;;4992734;28;20026;-78
2022/11/21 01:11:54;;;;;;;33.33;29.52;;;9.00;99.90;;;;;;4994975;28;20035;-78
2022/11/21 01:14:20;;;;;;;30.83;27.55;;;9.00;99.90;;;;;;4994939;28;20037;-78
2022/11/21 01:16:46;;;;;;;41.00;27.65;;;9.00;99.90;;;;;;4993798;28;20065;-78
2022/11/21 01:19:12;;;;;;;31.70;26.30;;;8.90;99.90;;;;;;4994145;28;20031;-78
2022/11/21 01:21:38;;;;;;;34.15;28.27;;;8.90;99.90;;;;;;5006193;28;20419;-78
2022/11/21 01:24:04;;;;;;;33.78;30.20;;;8.90;99.90;;;;;;4992683;28;20046;-78
2022/11/21 01:26:31;;;;;;;32.08;27.70;;;8.90;99.90;;;;;;5000900;28;20042;-78
2022/11/21 01:28:58;;;;;;;33.45;29.50;;;8.90;99.90;;;;;;4977055;28;20606;-78
2022/11/21 01:31:28;;;;;;;35.22;26.17;;;8.90;99.90;;;;;;5005920;28;20042;-78
2022/11/21 01:33:55;;;;;;;32.23;24.80;;;8.90;99.90;;;;;;4993651;28;20022;-78
2022/11/21 01:36:26;;;;;;;35.90;23.73;;;8.90;99.90;;;;;;4976629;28;20041;-78
2022/11/21 01:38:54;;;;;;;33.53;23.45;;;8.90;99.90;;;;;;4993645;28;20555;-78
2022/11/21 01:41:32;;;;;;;30.05;23.45;;;8.90;99.90;;;;;;5009588;28;20042;-78
2022/11/21 01:44:02;;;;;;;37.25;23.10;;;8.90;99.90;;;;;;5025687;28;20027;-78
2022/11/21 01:46:28;;;;;;;26.35;23.02;;;8.90;99.90;;;;;;4996922;28;20400;-78
2022/11/21 01:49:14;;;;;;;27.90;24.13;;;8.80;99.90;;;;;;4958076;28;20499;-78
2022/11/21 01:51:48;;;;;;;30.80;22.77;;;8.70;99.90;;;;;;4991445;28;20042;-78
2022/11/21 01:54:30;;;;;;;29.80;23.00;;;8.60;99.90;;;;;;5006154;28;20034;-78
2022/11/21 01:57:06;;;;;;;29.97;21.77;;;8.60;99.90;;;;;;4994232;28;20019;-78
2022/11/21 01:59:43;;;;;;;33.05;20.48;;;8.40;99.90;;;;;;4992996;28;20034;-78
2022/11/21 02:02:10;;;;;;;35.40;20.08;;;8.30;99.90;;;;;;4977822;28;20033;-77
2022/11/21 02:04:36;;;;;;;28.47;19.97;;;8.30;99.90;;;;;;4991650;28;20034;-77
2022/11/21 02:07:04;;;;;;;25.63;19.92;;;8.10;99.90;;;;;;5009112;28;20034;-78
2022/11/21 02:09:31;;;;;;;23.45;19.08;;;7.90;99.90;;;;;;4984021;28;20022;-77
2022/11/21 02:12:06;;;;;;;25.97;18.93;;;7.80;99.90;;;;;;4991714;28;20030;-77
2022/11/21 02:14:32;;;;;;;29.70;18.95;;;7.80;99.90;;;;;;4992852;28;20387;-78
2022/11/21 02:17:00;;;;;;;29.77;18.98;;;8.00;99.90;;;;;;4993070;28;20037;-78
2022/11/21 02:19:36;;;;;;;25.63;18.73;;;8.20;99.90;;;;;;4975803;28;20042;-78
2022/11/21 02:22:13;;;;;;;36.57;20.50;;;8.40;99.90;;;;;;5007981;28;20030;-77
2022/11/21 02:24:45;;;;;;;27.47;19.07;;;8.50;99.90;;;;;;4979937;28;20034;-78
2022/11/21 02:27:11;;;;;;;32.20;20.60;;;8.60;99.90;;;;;;4976014;28;20042;-77
2022/11/21 02:29:38;;;;;;;34.85;19.33;;;8.70;99.90;;;;;;5008979;28;20034;-78
2022/11/21 02:32:04;;;;;;;32.45;22.30;;;8.70;99.90;;;;;;5021295;28;20030;-78
2022/11/21 02:34:32;;;;;;;29.52;23.40;;;8.70;99.90;;;;;;4975431;28;20035;-78
2022/11/21 02:36:58;;;;;;;32.50;23.45;;;8.70;99.90;;;;;;4988908;28;20042;-78
2022/11/21 02:39:34;;;;;;;35.17;24.83;;;8.70;99.90;;;;;;4985476;28;20035;-77
2022/11/21 02:42:25;;;;;;;36.70;24.38;;;8.70;99.90;;;;;;5004643;28;20054;-77
2022/11/21 02:45:07;;;;;;;25.50;22.57;;;8.70;99.90;;;;;;4989340;28;20030;-78
2022/11/21 02:47:33;;;;;;;34.75;23.00;;;8.80;99.90;;;;;;5007131;28;20320;-78
2022/11/21 02:50:08;;;;;;;27.92;22.38;;;8.90;99.90;;;;;;5008399;28;20030;-78
2022/11/21 02:52:34;;;;;;;24.02;21.00;;;9.00;99.90;;;;;;5007132;28;20038;-78
2022/11/21 02:55:00;;;;;;;26.35;21.95;;;9.00;99.90;;;;;;5004818;28;20027;-78
2022/11/21 02:57:26;;;;;;;29.50;22.52;;;9.00;99.90;;;;;;5008297;28;20384;-78
2022/11/21 02:59:52;;;;;;;37.55;22.35;;;8.90;99.90;;;;;;4992035;28;20039;-78
2022/11/21 03:02:19;;;;;;;31.55;24.13;;;8.90;99.90;;;;;;4988734;28;20487;-78
2022/11/21 03:04:45;;;;;;;35.10;22.98;;;8.90;99.90;;;;;;4988728;28;20029;-78
2022/11/21 03:07:11;;;;;;;30.98;24.23;;;9.00;99.90;;;;;;4969672;28;20752;-78
2022/11/21 03:09:37;;;;;;;37.88;25.40;;;8.80;99.90;;;;;;4988087;28;20030;-78
2022/11/21 03:12:07;;;;;;;38.30;27.10;;;8.80;99.90;;;;;;4991788;28;20494;-78
2022/11/21 03:14:34;;;;;;;34.20;25.00;;;8.80;99.90;;;;;;4973961;28;20037;-78
2022/11/21 03:17:00;;;;;;;34.95;26.40;;;8.90;99.90;;;;;;4986154;28;20035;-78
2022/11/21 03:19:26;;;;;;;33.60;21.45;;;9.00;99.90;;;;;;4993870;28;20384;-78
2022/11/21 03:21:52;;;;;;;33.55;20.63;;;9.00;99.90;;;;;;5023116;28;20038;-78
2022/11/21 03:24:18;;;;;;;28.90;19.63;;;8.90;99.90;;;;;;4995493;28;20042;-78
2022/11/21 03:26:44;;;;;;;35.53;19.33;;;8.80;99.90;;;;;;4991299;28;20049;-78
2022/11/21 03:29:10;;;;;;;27.33;19.25;;;8.60;99.90;;;;;;4996832;28;20383;-77
2022/11/21 03:31:36;;;;;;;38.95;19.20;;;8.60;99.90;;;;;;4988811;28;20049;-78
2022/11/21 03:34:02;;;;;;;25.85;18.17;;;8.60;99.90;;;;;;4990549;28;20391;-78
2022/11/21 03:36:29;;;;;;;27.33;17.20;;;8.60;99.90;;;;;;4989813;28;20034;-78
2022/11/21 03:38:58;;;;;;;31.73;18.13;;;8.60;99.90;;;;;;4990992;28;20030;-77
2022/11/21 03:41:30;;;;;;;34.70;18.67;;;8.60;99.90;;;;;;4991846;28;20054;-78
2022/11/21 03:44:06;;;;;;;29.60;17.90;;;8.70;99.90;;;;;;4991610;28;20388;-78
2022/11/21 03:46:35;;;;;;;24.88;17.85;;;8.70;99.90;;;;;;4974713;28;20053;-78
2022/11/21 03:49:01;;;;;;;33.40;18.52;;;8.70;99.90;;;;;;4975474;28;20460;-78
2022/11/21 03:51:27;;;;;;;39.38;19.05;;;8.70;99.90;;;;;;4975173;28;20412;-78
2022/11/21 03:53:53;;;;;;;32.47;19.10;;;8.80;99.90;;;;;;4991932;28;20033;-77
2022/11/21 03:56:19;;;;;;;37.40;19.38;;;8.90;99.90;;;;;;5007445;28;20041;-78
2022/11/21 03:58:45;;;;;;;30.17;18.00;;;8.90;99.90;;;;;;4990401;28;20061;-77
2022/11/21 04:01:15;;;;;;;30.08;18.65;;;8.90;99.90;;;;;;5006194;28;20034;-78
2022/11/21 04:03:41;;;;;;;30.77;18.52;;;8.90;99.90;;;;;;4975143;28;20026;-78
2022/11/21 04:06:08;;;;;;;30.88;17.88;;;8.80;99.90;;;;;;4975328;28;20061;-79
2022/11/21 04:08:34;;;;;;;32.75;18.08;;;8.90;99.90;;;;;;4986687;28;20049;-78
2022/11/21 04:11:00;;;;;;;29.65;18.30;;;8.80;99.90;;;;;;4982771;28;20026;-78
2022/11/21 04:13:26;;;;;;;32.67;19.00;;;8.80;99.90;;;;;;4998026;28;20392;-78
2022/11/21 04:15:52;;;;;;;35.65;18.55;;;8.90;99.90;;;;;;4995749;28;20046;-78
2022/11/21 04:18:19;;;;;;;30.63;17.35;;;8.90;99.90;;;;;;5009639;28;20463;-79
2022/11/21 04:20:45;;;;;;;30.13;19.05;;;8.90;99.90;;;;;;4995638;28;20033;-78
2022/11/21 04:23:11;;;;;;;26.65;17.83;;;8.90;99.90;;;;;;4995214;28;20427;-78
2022/11/21 04:25:37;;;;;;;41.95;18.42;;;8.90;99.90;;;;;;5014272;28;20042;-77
2022/11/21 04:28:03;;;;;;;32.35;18.20;;;8.90;99.90;;;;;;5004600;28;20395;-78
2022/11/21 04:30:30;;;;;;;25.35;17.65;;;9.00;99.90;;;;;;4993692;28;20038;-78
2022/11/21 04:32:56;;;;;;;30.05;17.73;;;9.00;99.90;;;;;;4992989;28;20026;-81
2022/11/21 04:35:22;;;;;;;26.83;18.70;;;8.90;99.90;;;;;;4995061;28;20102;-81
2022/11/21 04:37:49;;;;;;;25.75;18.27;;;9.00;99.90;;;;;;4977402;28;20038;-79
2022/11/21 04:40:15;;;;;;;27.95;18.08;;;9.00;99.90;;;;;;5010701;28;20034;-80
2022/11/21 04:42:45;;;;;;;32.80;17.92;;;8.90;99.90;;;;;;4994417;28;20479;-80
2022/11/21 04:45:11;;;;;;;25.98;16.10;;;8.90;99.90;;;;;;4996003;28;20023;-80
2022/11/21 04:47:38;;;;;;;20.88;16.23;;;8.80;99.90;;;;;;4988261;28;20042;-80
2022/11/21 04:50:05;;;;;;;28.05;16.42;;;8.80;99.90;;;;;;5010457;28;20035;-79
2022/11/21 04:52:31;;;;;;;22.75;16.45;;;8.80;99.90;;;;;;5009579;28;20034;-79
2022/11/21 04:54:57;;;;;;;77.07;20.38;;;8.80;99.90;;;;;;5010567;28;20030;-79
2022/11/21 04:57:23;;;;;;;37.95;18.83;;;8.80;99.90;;;;;;5009271;28;20027;-79
2022/11/21 04:59:50;;;;;;;24.33;16.45;;;8.80;99.90;;;;;;4978033;28;20038;-79
2022/11/21 05:02:16;;;;;;;25.95;15.45;;;8.70;99.90;;;;;;4994676;28;20034;-79
2022/11/21 05:04:42;;;;;;;25.55;18.00;;;8.70;99.90;;;;;;4994156;28;20050;-79
2022/11/21 05:07:08;;;;;;;27.65;17.05;;;8.70;99.90;;;;;;4996824;28;20465;-80
2022/11/21 05:09:34;;;;;;;30.15;18.15;;;8.70;99.90;;;;;;4993665;28;20043;-79
2022/11/21 05:14:45;;;;;;;26.02;19.02;;;8.70;99.90;;;;;;4995979;28;20041;-79
2022/11/21 05:17:11;;;;;;;27.80;19.25;;;8.70;99.90;;;;;;4994379;28;20038;-79
2022/11/21 05:19:37;;;;;;;39.35;20.65;;;8.80;99.90;;;;;;4993768;28;20026;-80
2022/11/21 05:22:03;;;;;;;28.35;20.60;;;8.80;99.90;;;;;;5008020;28;20033;-79
2022/11/21 05:24:29;;;;;;;32.13;19.10;;;8.80;99.90;;;;;;5007963;28;20038;-79
2022/11/21 05:26:55;;;;;;;32.72;20.00;;;8.80;99.90;;;;;;4994385;28;20049;-79
2022/11/21 05:29:21;;;;;;;33.20;20.02;;;8.90;99.90;;;;;;4996805;28;20033;-79
2022/11/21 05:31:47;;;;;;;31.90;20.08;;;8.90;99.90;;;;;;5004993;28;20038;-79
2022/11/21 05:34:13;;;;;;;38.50;19.85;;;8.90;99.90;;;;;;4977452;28;20027;-79
2022/11/21 05:36:39;;;;;;;33.30;20.67;;;8.90;99.90;;;;;;4992808;28;20049;-80
2022/11/21 05:39:05;;;;;;;32.85;19.23;;;9.00;99.90;;;;;;4977595;28;20042;-80
2022/11/21 05:41:31;;;;;;;29.17;20.67;;;9.00;99.90;;;;;;4977036;28;20046;-80
2022/11/21 05:43:58;;;;;;;33.17;18.88;;;9.00;99.90;;;;;;4977026;28;20035;-79
2022/11/21 05:46:24;;;;;;;31.92;18.17;;;9.10;99.90;;;;;;5003887;28;20048;-80
2022/11/21 05:48:51;;;;;;;29.70;17.88;;;9.10;99.90;;;;;;4997520;28;20042;-80
2022/11/21 05:51:17;;;;;;;30.85;17.42;;;9.20;99.90;;;;;;4994514;28;20038;-79
2022/11/21 05:53:44;;;;;;;30.80;16.08;;;9.30;99.90;;;;;;5009157;28;20368;-80
2022/11/21 05:56:15;;;;;;;34.35;17.30;;;9.20;99.90;;;;;;4992952;28;20042;-79
2022/11/21 05:58:41;;;;;;;;;;;9.20;99.90;;;;;;5008794;28;20034;-80
2022/11/21 06:01:08;;;;;;;29.75;16.00;;;9.30;99.90;;;;;;5005294;28;19960;-80
2022/11/21 06:03:38;;;;;;;28.77;16.35;;;9.30;99.90;;;;;;4955451;29;20038;-79
2022/11/21 06:06:06;;;;;;;29.48;17.10;;;9.30;99.90;;;;;;4972905;28;20469;-83
2022/11/21 06:08:34;;;;;;;29.63;16.73;;;9.30;99.90;;;;;;4984704;28;20031;-80
2022/11/21 06:11:00;;;;;;;25.33;17.13;;;9.40;99.90;;;;;;5005616;28;20035;-82
2022/11/21 06:13:27;;;;;;;29.85;16.75;;;9.30;99.90;;;;;;4943606;28;20031;-80
2022/11/21 06:16:01;;;;;;;32.95;17.98;;;9.40;99.90;;;;;;4961214;28;20046;-80
2022/11/21 06:18:27;;;;;;;26.75;16.05;;;9.40;99.90;;;;;;4991509;28;20037;-80
2022/11/21 06:20:53;;;;;;;32.70;17.50;;;9.40;99.90;;;;;;4988926;28;20034;-82
2022/11/21 06:23:19;;;;;;;21.38;17.10;;;9.40;99.90;;;;;;5006438;28;20034;-80
2022/11/21 06:25:46;;;;;;;26.45;18.30;;;9.40;99.90;;;;;;5000408;28;20042;-79
2022/11/21 06:28:12;;;;;;;31.92;18.38;;;9.40;99.90;;;;;;4994767;28;20030;-78
2022/11/21 06:30:38;;;;;;;25.55;17.67;;;9.40;99.90;;;;;;4975594;28;20421;-79
2022/11/21 06:33:05;;;;;;;26.92;19.13;;;9.40;99.90;;;;;;5005593;28;20044;-78
2022/11/21 06:35:31;;;;;;;34.53;18.52;;;9.30;99.90;;;;;;4978159;28;20027;-78
2022/11/21 06:37:57;;;;;;;34.38;18.13;;;9.30;99.90;;;;;;4987366;28;20050;-78
2022/11/21 06:40:24;;;;;;;30.70;19.02;;;9.30;99.90;;;;;;5011722;28;20025;-79
2022/11/21 06:42:50;;;;;;;27.83;17.95;;;9.30;99.90;;;;;;5011881;28;20380;-78
2022/11/21 06:45:16;;;;;;;30.27;18.02;;;9.40;99.90;;;;;;4984544;28;20045;-80
2022/11/21 06:47:42;;;;;;;27.02;18.13;;;9.30;99.90;;;;;;4990500;28;20617;-80
2022/11/21 06:50:08;;;;;;;30.05;19.88;;;9.30;99.90;;;;;;5006593;28;20038;-78
2022/11/21 06:52:35;;;;;;;34.28;21.33;;;9.40;99.90;;;;;;5007740;28;20037;-78
2022/11/21 06:55:01;;;;;;;31.38;19.45;;;9.30;99.90;;;;;;4993359;28;20018;-80
2022/11/21 06:57:27;;;;;;;32.75;19.45;;;9.40;99.90;;;;;;4994927;28;20042;-79
2022/11/21 06:59:53;;;;;;;28.05;18.25;;;9.40;99.90;;;;;;4991356;28;20029;-79
2022/11/21 07:02:19;;;;;;;33.72;19.08;;;9.30;99.90;;;;;;4973165;28;20479;-78
2022/11/21 07:04:45;;;;;;;32.25;19.33;;;9.40;99.90;;;;;;4991529;28;20046;-78
2022/11/21 07:07:11;;;;;;;29.70;20.08;;;9.40;99.90;;;;;;4993181;28;20051;-79
2022/11/21 07:09:37;;;;;;;25.15;16.02;;;9.50;99.90;;;;;;4991458;28;20044;-78
2022/11/21 07:14:48;;;;;;;22.15;18.02;;;9.50;99.90;;;;;;5009240;28;20387;-79
2022/11/21 07:17:14;;;;;;;28.08;19.13;;;9.50;99.90;;;;;;5004411;28;20035;-81
2022/11/21 07:19:40;;;;;;;27.27;16.58;;;9.40;99.90;;;;;;4973358;28;20049;-84
2022/11/21 07:22:07;;;;;;;26.63;20.00;;;9.50;99.90;;;;;;4978818;28;20522;-84
2022/11/21 07:24:33;;;;;;;27.63;18.48;;;9.40;99.90;;;;;;4974554;28;20042;-82
2022/11/21 07:27:00;;;;;;;33.53;19.95;;;9.50;99.90;;;;;;4993555;28;20042;-82
2022/11/21 07:29:26;;;;;;;27.27;16.77;;;9.50;99.90;;;;;;5004787;28;20490;-85
2022/11/21 07:31:53;;;;;;;31.33;18.85;;;9.50;99.90;;;;;;4986673;28;20039;-82
2022/11/21 07:34:19;;;;;;;25.98;19.08;;;9.50;99.90;;;;;;4975575;28;20042;-82
2022/11/21 07:36:45;;;;;;;26.58;20.48;;;9.60;99.90;;;;;;4986428;28;20023;-81
2022/11/21 07:39:11;;;;;;;30.95;20.33;;;9.60;99.90;;;;;;4987797;28;20042;-81
2022/11/21 07:41:38;;;;;;;30.10;21.35;;;9.60;99.90;;;;;;4985744;28;20028;-81
2022/11/21 07:44:04;;;;;;;28.27;21.08;;;9.60;99.90;;;;;;4972064;28;20030;-82
2022/11/21 07:46:30;;;;;;;35.83;20.85;;;9.60;99.90;;;;;;4986015;28;20047;-82
2022/11/21 07:48:56;;;;;;;31.30;22.42;;;9.60;99.90;;;;;;4995398;28;20041;-82
2022/11/21 07:51:22;;;;;;;33.60;21.75;;;9.60;99.90;;;;;;4991692;28;20503;-84
2022/11/21 07:53:48;;;;;;;28.92;23.02;;;9.60;99.90;;;;;;5008001;28;20041;-82
2022/11/21 07:56:14;;;;;;;31.38;21.75;;;9.60;99.90;;;;;;4996494;28;20056;-83
2022/11/21 07:58:40;;;;;;;31.73;20.45;;;9.60;99.90;;;;;;4990423;28;20034;-83
2022/11/21 08:01:06;;;;;;;33.53;20.13;;;9.60;99.90;;;;;;4993900;28;20403;-84
2022/11/21 08:03:33;;;;;;;34.95;19.50;;;9.60;99.90;;;;;;5013338;28;20045;-80
2022/11/21 08:06:03;;;;;;;29.98;18.52;;;9.70;99.90;;;;;;4984414;28;20045;-80
2022/11/21 08:08:29;;;;;;;29.50;18.33;;;9.70;99.90;;;;;;5012571;28;20034;-79
2022/11/21 08:10:55;;;;;;;28.42;17.35;;;9.60;99.90;;;;;;5003659;28;20042;-81
2022/11/21 08:13:21;;;;;;;35.08;19.23;;;9.60;99.90;;;;;;4997471;28;20491;-81
2022/11/21 08:15:47;;;;;;;25.50;17.35;;;9.60;99.90;;;;;;4990081;28;20034;-80
2022/11/21 08:18:17;;;;;;;25.92;17.42;;;9.60;99.90;;;;;;4991718;28;20035;-82
2022/11/21 08:20:43;;;;;;;30.65;18.67;;;9.70;99.90;;;;;;4991570;28;20039;-81
2022/11/21 08:23:10;;;;;;;30.08;19.50;;;9.70;99.90;;;;;;4990109;28;20390;-81
2022/11/21 08:25:36;;;;;;;21.48;17.20;;;9.60;99.90;;;;;;4986697;28;20047;-82
2022/11/21 08:28:03;;;;;;;23.73;20.73;;;9.70;99.90;;;;;;4990737;28;20042;-81
2022/11/21 08:30:29;;;;;;;23.45;19.92;;;9.60;99.90;;;;;;4983291;28;20050;-79
2022/11/21 08:32:59;;;;;;;25.70;23.05;;;9.60;99.90;;;;;;5010571;28;20038;-81
2022/11/21 08:35:25;;;;;;;30.10;22.17;;;9.60;99.90;;;;;;5009701;28;20026;-80
2022/11/21 08:37:58;;;;;;;31.67;28.27;;;9.60;99.90;;;;;;4993087;28;20031;-80
2022/11/21 08:40:25;;;;;;;30.85;25.15;;;9.50;99.90;;;;;;5001509;28;20456;-79
2022/11/21 08:42:58;;;;;;;27.65;22.25;;;9.50;99.90;;;;;;4995768;28;20026;-80
2022/11/21 08:45:24;;;;;;;29.33;23.98;;;9.50;99.90;;;;;;5005486;28;20031;-80
2022/11/21 08:47:51;;;;;;;22.33;19.58;;;9.50;99.90;;;;;;5010200;28;20106;-80
2022/11/21 08:50:17;;;;;;;30.88;22.13;;;9.50;99.90;;;;;;5009110;28;20022;-81
2022/11/21 08:52:43;;;;;;;24.70;22.15;;;9.50;99.90;;;;;;4990740;28;20035;-81
2022/11/21 08:55:09;;;;;;;28.67;24.70;;;9.50;99.90;;;;;;5010180;28;20034;-81
2022/11/21 08:57:39;;;;;;;29.33;26.38;;;9.50;99.90;;;;;;5003478;28;20041;-79
2022/11/21 09:00:06;;;;;;;28.65;25.88;;;9.50;99.90;;;;;;5009154;28;20034;-79
2022/11/21 09:02:32;;;;;;;28.35;24.38;;;9.50;99.90;;;;;;4994045;28;20380;-80
2022/11/21 09:04:58;;;;;;;31.67;28.70;;;9.60;99.90;;;;;;4993666;28;20358;-83
2022/11/21 09:07:24;;;;;;;32.78;27.95;;;9.50;99.90;;;;;;4998310;28;20387;-79
2022/11/21 09:09:51;;;;;;;31.10;27.88;;;9.60;99.90;;;;;;4995741;28;20038;-80
2022/11/21 09:12:17;;;;;;;30.45;27.38;;;9.60;99.90;;;;;;5009699;28;20110;-81
2022/11/21 09:20:12;;;;;;;30.95;28.15;;;9.50;99.90;;;;;;4993749;28;20102;-81
2022/11/21 09:22:38;;;;;;;32.60;29.58;;;9.60;99.90;;;;;;5009975;28;20036;-81
2022/11/21 09:25:04;;;;;;;35.50;32.30;;;9.50;99.90;;;;;;4997159;28;20042;-81
2022/11/21 09:27:30;;;;;;;30.58;28.20;;;9.60;99.90;;;;;;4993112;28;20669;-80
2022/11/21 09:29:56;;;;;;;33.75;31.20;;;9.50;99.90;;;;;;5000971;28;20023;-80
2022/11/21 09:32:22;;;;;;;35.92;32.92;;;9.50;99.90;;;;;;4994145;28;20042;-80
2022/11/21 09:34:49;;;;;;;37.80;34.90;;;9.50;99.90;;;;;;5009757;28;20026;-81
2022/11/21 09:37:15;;;;;;;33.03;30.52;;;9.50;99.90;;;;;;4983877;28;20396;-81
2022/11/21 09:39:41;;;;;;;35.65;32.35;;;9.60;99.90;;;;;;4993236;28;20033;-81
2022/11/21 09:42:35;;;;;;;32.22;29.55;;;9.60;99.90;;;;;;5009992;28;20388;-80
2022/11/21 09:45:03;;;;;;;31.95;29.42;;;9.60;99.90;;;;;;4988560;28;20027;-81
2022/11/21 09:47:31;;;;;;;31.00;28.52;;;9.60;99.90;;;;;;4984598;28;20280;-80
2022/11/21 09:50:06;;;;;;;31.67;29.05;;;9.60;99.90;;;;;;4989886;28;20053;-81
2022/11/21 09:52:47;;;;;;;26.70;24.65;;;9.60;99.90;;;;;;4999723;28;20395;-81
2022/11/21 09:55:37;;;;;;;25.98;24.00;;;9.60;99.90;;;;;;4973860;28;20034;-82
2022/11/21 09:58:05;;;;;;;31.00;28.98;;;9.60;99.90;;;;;;5004692;28;20371;-82
2022/11/21 10:00:31;;;;;;;31.30;29.02;;;9.60;99.90;;;;;;5007773;28;20034;-81
2022/11/21 10:02:58;;;;;;;38.50;35.70;;;9.60;99.90;;;;;;4990610;28;20057;-81
2022/11/21 10:05:46;;;;;;;36.75;34.05;;;9.70;99.90;;;;;;4956995;28;20049;-81
2022/11/21 10:08:39;;;;;;;37.88;35.30;;;9.70;99.90;;;;;;4989022;28;20047;-80
2022/11/21 10:11:11;;;;;;;32.90;30.70;;;9.70;99.90;;;;;;4969854;28;20042;-80
2022/11/21 10:13:42;;;;;;;40.92;38.30;;;9.80;99.90;;;;;;5008988;28;20023;-80
2022/11/21 10:16:11;;;;;;;35.10;32.60;;;9.70;99.90;;;;;;4995179;28;20039;-79
2022/11/21 10:18:59;;;;;;;35.17;32.83;;;9.80;99.90;;;;;;4974752;28;20046;-81
2022/11/21 10:21:47;;;;;;;33.30;30.83;;;9.80;99.90;;;;;;5025166;28;20029;-81
2022/11/21 10:24:43;;;;;;;37.60;35.28;;;9.90;99.90;;;;;;4993163;28;20031;-81
2022/11/21 10:27:33;;;;;;;43.20;33.40;;;9.90;99.90;;;;;;4982472;28;20073;-80
2022/11/21 10:30:05;;;;;;;34.17;32.08;;;9.90;99.90;;;;;;4988784;28;20038;-82
2022/11/21 10:32:35;;;;;;;34.88;32.75;;;10.00;99.90;;;;;;4975459;28;20030;-81
2022/11/21 10:35:27;;;;;;;33.13;31.27;;;10.00;99.90;;;;;;4993604;28;20038;-82
2022/11/21 10:38:00;;;;;;;33.72;31.52;;;10.10;99.90;;;;;;4992117;28;20045;-81
2022/11/21 10:41:00;;;;;;;29.35;27.73;;;10.10;99.90;;;;;;4975879;28;20030;-81
2022/11/21 10:46:23;;;;;;;27.23;25.83;;;10.10;99.90;;;;;;4976081;28;20127;-81
2022/11/21 10:48:59;;;;;;;26.45;24.88;;;10.20;99.90;;;;;;4991732;28;20054;-83
2022/11/21 10:51:37;;;;;;;29.02;27.63;;;10.20;99.90;;;;;;4996314;28;20046;-82
2022/11/21 10:54:31;;;;;;;28.27;26.58;;;10.30;99.90;;;;;;4988218;28;20049;-80
2022/11/21 10:57:05;;;;;;;28.35;26.92;;;10.40;99.90;;;;;;5002943;28;20022;-85
2022/11/21 10:59:31;;;;;;;31.17;29.52;;;10.40;99.90;;;;;;4974996;28;20038;-87
2022/11/21 11:02:13;;;;;;;31.67;30.08;;;10.40;99.90;;;;;;5020195;28;20468;-84
2022/11/21 11:04:39;;;;;;;32.05;30.40;;;10.40;99.90;;;;;;4992063;28;20045;-87
2022/11/21 11:07:25;;;;;;;35.00;33.30;;;10.50;99.90;;;;;;4991361;28;20027;-85
2022/11/21 11:09:52;;;;;;;30.80;29.30;;;10.50;99.90;;;;;;4991800;28;20030;-88
2022/11/21 11:15:30;;;;;;;28.45;26.98;;;10.60;99.90;;;;;;4993117;28;20053;-87
2022/11/21 11:17:58;;;;;;;28.08;26.55;;;10.60;99.90;;;;;;5010426;28;20042;-87
2022/11/21 11:20:31;;;;;;;29.23;27.75;;;10.70;99.90;;;;;;4979804;28;20030;-86
2022/11/21 11:22:57;;;;;;;29.67;28.27;;;10.80;99.90;;;;;;5024580;28;20034;-87
2022/11/21 11:25:23;;;;;;;30.42;28.80;;;10.80;99.90;;;;;;4990695;28;20065;-85
2022/11/21 11:27:49;;;;;;;31.83;30.33;;;10.80;99.90;;;;;;4990680;28;20038;-84
2022/11/21 11:30:16;;;;;;;29.13;27.73;;;10.90;99.90;;;;;;4988446;28;20034;-86
2022/11/21 11:32:42;;;;;;;31.27;27.85;;;10.90;99.90;;;;;;4954068;28;20054;-86
2022/11/21 11:35:11;;;;;;;29.50;27.98;;;10.90;99.90;;;;;;4989796;28;20039;-82
2022/11/21 11:37:38;;;;;;;29.90;28.17;;;11.10;99.90;;;;;;4992271;28;20042;-74
2022/11/21 11:40:35;;;;;;;27.65;26.20;;;11.10;99.90;;;;;;4973611;28;20031;-79
2022/11/21 11:47:29;;;;;;;25.20;23.65;;;11.30;99.90;;;;;;4993195;28;20399;-82
2022/11/21 11:52:38;;;;;;;29.23;27.58;;;11.50;99.90;;;;;;4994363;28;20053;-82
2022/11/21 11:55:13;;;;;;;26.20;24.48;;;11.50;99.90;;;;;;5005634;28;20034;-82
2022/11/21 11:57:39;;;;;;;32.20;30.08;;;11.60;99.90;;;;;;4974668;28;20047;-82
2022/11/21 12:00:26;;;;;;;35.58;33.28;;;11.60;99.90;;;;;;4973702;28;20513;-82
2022/11/21 12:02:56;;;;;;;35.55;33.13;;;11.70;99.90;;;;;;5006877;28;20030;-82
2022/11/21 12:05:26;;;;;;;36.22;34.17;;;11.70;99.90;;;;;;5007273;28;20026;-82
2022/11/21 12:08:07;;;;;;;36.20;33.42;;;11.80;99.90;;;;;;5006995;28;20395;-82
2022/11/21 12:13:54;;;;;;;43.97;40.50;;;11.70;99.90;;;;;;4928599;29;20047;-82
2022/11/21 12:16:20;;;;;;;57.53;52.97;;;11.80;99.90;;;;;;4921675;29;20132;-82
2022/11/21 12:18:59;;;;;;;41.83;37.97;;;11.80;99.90;;;;;;4931208;29;20061;-82
2022/11/21 12:21:25;;;;;;;53.15;49.45;;;11.80;99.90;;;;;;4931314;29;20051;-82
2022/11/21 12:23:57;;;;;;;34.42;31.00;;;11.80;99.90;;;;;;4916962;29;20035;-82
2022/11/21 12:26:42;;;;;;;33.35;28.38;;;11.90;99.90;;;;;;4928088;29;20058;-82
2022/11/21 12:29:14;;;;;;;41.60;30.35;;;11.90;99.90;;;;;;4935432;29;20500;-82
2022/11/21 12:32:04;;;;;;;47.05;42.67;;;11.90;99.90;;;;;;4921249;29;20044;-82
2022/11/21 12:35:01;;;;;;;31.67;28.40;;;12.00;99.90;;;;;;4933561;29;20111;-82
2022/11/21 12:37:36;;;;;;;35.65;20.30;;;12.20;99.90;;;;;;4922764;29;20047;-82
2022/11/21 12:40:10;;;;;;;27.45;18.85;;;12.30;99.90;;;;;;4915866;29;20043;-81
2022/11/21 12:42:57;;;;;;;28.08;17.45;;;12.50;99.90;;;;;;4915523;29;20100;-82
2022/11/21 12:45:31;;;;;;;35.45;17.15;;;12.60;99.90;;;;;;4920728;29;20040;-82
2022/11/21 12:54:32;;;;;;;32.45;18.33;;;12.90;99.90;;;;;;5011429;28;20042;-82
2022/11/21 12:57:17;;;;;;;33.95;17.00;;;13.00;99.90;;;;;;5009602;28;20034;-81
2022/11/21 13:00:07;;;;;;;36.20;17.58;;;13.10;99.90;;;;;;5007281;28;20502;-81
2022/11/21 13:02:38;;;;;;;36.08;17.83;;;13.10;99.90;;;;;;4992469;28;20574;-82
2022/11/21 13:05:05;;;;;;;33.95;17.33;;;13.10;99.90;;;;;;4994077;28;20034;-82
2022/11/21 13:07:31;;;;;;;27.02;16.67;;;13.20;99.90;;;;;;4992890;28;20046;-82
2022/11/21 13:09:59;;;;;;;25.48;16.52;;;13.30;99.90;;;;;;5009527;28;20360;-82
2022/11/21 13:12:43;;;;;;;30.38;16.35;;;13.30;99.90;;;;;;4992332;28;20025;-82
2022/11/21 13:15:39;;;;;;;34.05;17.02;;;13.30;99.90;;;;;;5008586;28;20034;-82
2022/11/21 13:18:43;;;;;;;30.67;15.95;;;13.30;99.90;;;;;;4989040;28;20038;-81
2022/11/21 13:21:41;;;;;;;23.60;14.02;;;13.40;99.90;;;;;;5001331;28;20054;-81